createdAt,value
2018-05-01T15:33:44.272Z,0.50
2018-05-01T15:36:12.673Z,0.50
2018-05-01T15:38:40.297Z,0.40
2018-05-01T15:41:07.928Z,0.37
2018-05-01T15:43:35.789Z,0.40
2018-05-01T15:46:03.458Z,0.57
2018-05-01T15:48:31.079Z,0.50
2018-05-01T15:50:59.436Z,0.50
2018-05-01T15:53:27.085Z,0.40
2018-05-01T15:55:54.711Z,0.60
2018-05-01T15:58:23.381Z,0.50
2018-05-01T16:00:51.797Z,0.60
2018-05-01T16:03:19.392Z,0.60
2018-05-01T16:05:47.019Z,0.50
2018-05-01T16:08:15.393Z,0.50
2018-05-01T16:10:43.855Z,0.50
2018-05-01T16:13:11.513Z,0.70
2018-05-01T16:15:39.184Z,0.60
2018-05-01T16:18:06.809Z,0.50
2018-05-01T16:20:34.473Z,0.60
2018-05-01T16:23:02.848Z,0.70
2018-05-01T16:25:30.505Z,0.68
2018-05-01T16:27:58.908Z,0.50
2018-05-01T16:30:26.510Z,0.60
2018-05-01T16:32:54.115Z,0.50
2018-05-01T16:35:21.771Z,0.60
2018-05-01T16:37:50.735Z,0.60
2018-05-01T16:40:18.347Z,0.70
2018-05-01T16:42:45.992Z,0.70
2018-05-01T16:45:13.601Z,0.70
2018-05-01T16:47:41.284Z,0.70
2018-05-01T16:50:08.935Z,0.50
2018-05-01T16:52:36.568Z,0.70
2018-05-01T16:55:04.979Z,0.65
2018-05-01T16:57:33.078Z,0.80
2018-05-01T17:00:00.723Z,0.65
2018-05-01T17:02:28.319Z,0.70
2018-05-01T17:04:56.212Z,0.90
2018-05-01T17:07:23.894Z,0.70
2018-05-01T17:09:51.557Z,0.77
2018-05-01T17:12:19.229Z,0.90
2018-05-01T17:14:46.877Z,0.93
2018-05-01T17:17:14.508Z,0.80
2018-05-01T17:19:42.127Z,0.80
2018-05-01T17:22:09.787Z,0.90
2018-05-01T17:24:37.454Z,0.82
2018-05-01T17:27:05.093Z,0.98
2018-05-01T17:29:32.771Z,0.85
2018-05-01T17:32:00.446Z,0.90
2018-05-01T17:34:28.083Z,0.80
2018-05-01T17:36:55.771Z,1.00
2018-05-01T17:39:23.432Z,1.02
2018-05-01T17:41:51.073Z,0.90
2018-05-01T17:44:18.728Z,0.90
2018-05-01T17:46:46.365Z,0.80
2018-05-01T17:49:14.035Z,1.10
2018-05-01T17:51:42.424Z,1.30
2018-05-01T17:54:10.810Z,1.10
2018-05-01T17:56:39.300Z,0.98
2018-05-01T17:59:07.734Z,1.10
2018-05-01T18:01:35.386Z,1.05
2018-05-01T18:04:03.032Z,1.00
2018-05-01T18:06:31.674Z,1.10
2018-05-01T18:08:59.299Z,1.23
2018-05-01T18:11:26.906Z,1.25
2018-05-01T18:13:54.576Z,1.10
2018-05-01T18:16:22.273Z,1.00
2018-05-01T18:18:50.647Z,1.00
2018-05-01T18:21:19.019Z,1.10
2018-05-01T18:23:46.922Z,1.20
2018-05-01T18:26:14.586Z,1.08
2018-05-01T18:28:43.771Z,1.00
2018-05-01T18:31:12.237Z,0.82
2018-05-01T18:33:39.887Z,1.00
2018-05-01T18:36:07.665Z,1.10
2018-05-01T18:38:35.382Z,1.10
2018-05-01T18:41:03.060Z,1.10
2018-05-01T18:43:30.752Z,1.02
2018-05-01T18:45:58.481Z,1.50
2018-05-01T18:48:26.104Z,1.45
2018-05-01T18:50:53.921Z,1.42
2018-05-01T18:53:21.523Z,1.15
2018-05-01T18:55:49.138Z,1.30
2018-05-01T18:58:17.569Z,1.40
2018-05-01T19:00:45.214Z,1.40
2018-05-01T19:03:13.650Z,1.40
2018-05-01T19:05:41.295Z,1.60
2018-05-01T19:08:08.938Z,1.62
2018-05-01T19:10:37.341Z,1.40
2018-05-01T19:13:05.041Z,1.30
2018-05-01T19:15:32.713Z,1.80
2018-05-01T19:18:00.307Z,1.80
2018-05-01T19:20:27.944Z,1.40
2018-05-01T19:22:55.540Z,1.20
2018-05-01T19:25:24.000Z,1.20
2018-05-01T19:27:51.618Z,1.33
2018-05-01T19:30:19.273Z,1.40
2018-05-01T19:32:47.643Z,1.50
2018-05-01T19:35:15.250Z,1.40
2018-05-01T19:37:42.879Z,1.80
2018-05-01T19:40:11.236Z,1.70
2018-05-01T19:42:38.870Z,1.90
2018-05-01T19:45:06.482Z,1.80
2018-05-01T19:47:34.131Z,1.60
2018-05-01T19:50:01.747Z,1.50
2018-05-01T19:52:29.375Z,1.58
2018-05-01T19:54:56.988Z,1.80
2018-05-01T19:57:24.647Z,1.73
2018-05-01T19:59:52.248Z,1.87
2018-05-01T20:02:19.858Z,1.45
2018-05-01T20:04:48.260Z,1.80
2018-05-01T20:07:15.919Z,1.90
2018-05-01T20:09:43.685Z,1.90
2018-05-01T20:12:11.345Z,1.87
2018-05-01T20:14:39.719Z,1.85
2018-05-01T20:17:07.338Z,1.60
2018-05-01T20:19:34.979Z,1.98
2018-05-01T20:22:02.844Z,1.70
2018-05-01T20:24:30.441Z,2.20
2018-05-01T20:26:58.035Z,1.83
2018-05-01T20:29:25.676Z,1.65
2018-05-01T20:31:53.344Z,1.83
2018-05-01T20:34:21.001Z,2.20
2018-05-01T20:36:48.599Z,1.90
2018-05-01T20:39:16.240Z,1.92
2018-05-01T20:41:43.874Z,1.70
2018-05-01T20:44:12.284Z,2.07
2018-05-01T20:46:39.879Z,1.92
2018-05-01T20:49:07.522Z,1.73
2018-05-01T20:51:35.151Z,1.80
2018-05-01T20:54:03.595Z,2.00
2018-05-01T20:56:31.222Z,1.80
2018-05-01T20:58:58.816Z,1.98
2018-05-01T21:01:26.444Z,2.17
2018-05-01T21:03:54.809Z,1.90
2018-05-01T21:06:23.211Z,2.10
2018-05-01T21:08:50.857Z,2.40
2018-05-01T21:11:19.236Z,2.20
2018-05-01T21:13:46.876Z,2.10
2018-05-01T21:16:14.468Z,2.27
2018-05-01T21:18:42.882Z,2.67
2018-05-01T21:21:10.493Z,2.17
2018-05-01T21:23:38.389Z,2.30
2018-05-01T21:26:06.760Z,2.20
2018-05-01T21:28:34.352Z,2.30
2018-05-01T21:31:02.749Z,2.33
2018-05-01T21:33:30.476Z,2.40
2018-05-01T21:35:58.125Z,2.08
2018-05-01T21:38:25.790Z,2.40
2018-05-01T21:40:53.573Z,2.33
2018-05-01T21:43:21.039Z,2.30
2018-05-01T21:45:48.637Z,2.12
2018-05-01T21:48:17.025Z,2.40
2018-05-01T21:50:46.181Z,2.50
2018-05-01T21:53:13.792Z,2.35
2018-05-01T21:55:42.507Z,2.40
2018-05-01T21:58:10.090Z,2.33
2018-05-01T22:00:37.673Z,2.30
2018-05-01T22:03:05.301Z,2.50
2018-05-01T22:05:33.269Z,2.75
2018-05-01T22:08:00.858Z,3.00
2018-05-01T22:10:28.449Z,2.60
2018-05-01T22:12:56.104Z,2.83
2018-05-01T22:15:23.736Z,2.95
2018-05-01T22:17:51.352Z,2.50
2018-05-01T22:20:18.953Z,2.58
2018-05-01T22:22:46.580Z,2.50
2018-05-01T22:25:14.163Z,2.65
2018-05-01T22:27:41.809Z,2.40
2018-05-01T22:30:09.392Z,2.93
2018-05-01T22:32:37.005Z,2.60
2018-05-01T22:35:04.663Z,2.97
2018-05-01T22:37:32.310Z,2.57
2018-05-01T22:40:00.712Z,2.50
2018-05-01T22:42:28.309Z,2.60
2018-05-01T22:44:55.935Z,2.70
2018-05-01T22:47:23.579Z,2.85
2018-05-01T22:49:51.980Z,3.00
2018-05-01T22:52:20.328Z,2.70
2018-05-01T22:54:47.934Z,2.72
2018-05-01T22:57:15.554Z,2.57
2018-05-01T22:59:43.167Z,2.60
2018-05-01T23:02:10.810Z,2.60
2018-05-01T23:04:38.418Z,3.00
2018-05-01T23:07:06.014Z,2.62
2018-05-01T23:09:33.727Z,2.53
2018-05-01T23:12:02.128Z,2.50
2018-05-01T23:14:29.761Z,2.90
2018-05-01T23:16:58.127Z,2.58
2018-05-01T23:19:25.745Z,2.70
2018-05-01T23:21:53.392Z,2.30
2018-05-01T23:24:21.786Z,2.90
2018-05-01T23:26:49.400Z,2.50
2018-05-01T23:29:17.034Z,2.50
2018-05-01T23:31:44.633Z,2.50
2018-05-01T23:34:12.255Z,2.73
2018-05-01T23:36:39.870Z,2.62
2018-05-01T23:39:07.468Z,2.70
2018-05-01T23:41:35.852Z,2.55
2018-05-01T23:44:04.560Z,2.37
2018-05-01T23:46:32.152Z,2.50
2018-05-01T23:48:59.746Z,2.80
2018-05-01T23:51:27.636Z,3.15
2018-05-01T23:53:56.025Z,2.42
2018-05-01T23:56:24.413Z,3.03
2018-05-01T23:58:52.806Z,2.78
